Tipton, Oklahoma
Current Conditions -  °F | °C
As of 11:58 PM on Sunday 23 Nov 2014 (Local Time) from KLTS Reporting Station
Clear Clear  
Wind Chill: 36°   Ceiling: Unl
Heat Index: 41°   Visibility: 10mi
Dew Point: 33°   Wind: 7mph
Humidity: 73%   Direction: 300°WNW
Pressure: 29.88"   Gusts: NA
Location:  34.5°N, 99.14°W
Report Text: KLTS 240558Z AUTO 30006KT 10SM CLR 05/01 A2988 RMK AO2 SLP117 T00500006 10099 20049 401700049 52025 $
Loading
Personal Weather Stations






























Interactive Weather Map New forecast layout! Learn more

10-Day Weather Forecast

Advertisements
Track Severe Weather on mobile